createdAt,value
2018-04-06T00:00:07.731Z,6.30
2018-04-06T00:02:35.234Z,6.10
2018-04-06T00:05:03.486Z,5.80
2018-04-06T00:07:31.008Z,5.20
2018-04-06T00:09:59.249Z,6.00
2018-04-06T00:12:26.722Z,6.30
2018-04-06T00:14:54.215Z,6.20
2018-04-06T00:17:22.461Z,5.43
2018-04-06T00:19:49.974Z,5.80
2018-04-06T00:22:17.451Z,6.83
2018-04-06T00:24:45.742Z,7.00
2018-04-06T00:27:13.977Z,6.90
2018-04-06T00:29:41.480Z,7.03
2018-04-06T00:32:08.966Z,6.17
2018-04-06T00:34:36.485Z,5.70
2018-04-06T00:37:03.963Z,5.73
2018-04-06T00:39:31.471Z,7.97
2018-04-06T00:41:58.976Z,9.30
2018-04-06T00:44:26.482Z,10.63
2018-04-06T00:46:53.969Z,8.10
2018-04-06T00:49:21.474Z,7.73
2018-04-06T00:51:48.961Z,7.53
2018-04-06T00:54:16.462Z,7.40
2018-04-06T00:56:44.015Z,6.03
2018-04-06T00:59:12.231Z,7.83
2018-04-06T01:01:39.742Z,7.17
2018-04-06T01:04:07.218Z,7.50
2018-04-06T01:06:35.479Z,7.77
2018-04-06T01:09:02.965Z,6.63
2018-04-06T01:11:30.480Z,7.53
2018-04-06T01:13:57.959Z,6.63
2018-04-06T01:16:25.426Z,7.10
2018-04-06T01:18:52.927Z,6.77
2018-04-06T01:21:20.401Z,6.50
2018-04-06T01:23:47.916Z,6.40
2018-04-06T01:26:15.390Z,6.90
2018-04-06T01:28:42.895Z,6.80
2018-04-06T01:31:10.370Z,7.37
2018-04-06T01:33:37.877Z,6.70
2018-04-06T01:36:06.107Z,6.90
2018-04-06T01:38:33.622Z,6.90
2018-04-06T01:41:01.120Z,6.70
2018-04-06T01:43:29.411Z,6.03
2018-04-06T01:45:56.915Z,5.80
2018-04-06T01:48:24.393Z,5.70
2018-04-06T01:50:51.902Z,6.27
2018-04-06T01:53:19.394Z,5.90
2018-04-06T01:55:46.904Z,6.47
2018-04-06T01:58:14.398Z,6.40
2018-04-06T02:00:41.902Z,5.80
2018-04-06T02:03:09.379Z,6.47
2018-04-06T02:05:36.892Z,6.63
2018-04-06T02:08:04.373Z,5.90
2018-04-06T02:10:31.842Z,6.33
2018-04-06T02:13:05.912Z,6.87
2018-04-06T02:15:33.424Z,7.40
2018-04-06T02:18:00.929Z,6.30
2018-04-06T02:20:29.177Z,6.07
2018-04-06T02:22:56.684Z,7.67
2018-04-06T02:25:24.926Z,6.90
2018-04-06T02:27:52.430Z,6.73
2018-04-06T02:30:19.926Z,6.47
2018-04-06T02:32:48.195Z,6.27
2018-04-06T02:35:15.676Z,7.03
2018-04-06T02:37:43.970Z,6.70
2018-04-06T02:40:12.214Z,6.20
2018-04-06T02:42:39.698Z,7.10
2018-04-06T02:45:07.218Z,6.80
2018-04-06T02:47:34.715Z,6.80
2018-04-06T02:50:02.247Z,6.63
2018-04-06T02:52:30.487Z,6.47
2018-04-06T02:54:57.995Z,6.80
2018-04-06T02:57:26.248Z,6.77
2018-04-06T02:59:53.756Z,6.37
2018-04-06T03:02:22.047Z,5.97
2018-04-06T03:04:50.330Z,5.83
2018-04-06T03:07:17.810Z,5.93
2018-04-06T03:09:45.326Z,6.20
2018-04-06T03:12:12.803Z,5.50
2018-04-06T03:14:40.319Z,7.43
2018-04-06T03:17:08.578Z,6.57
2018-04-06T03:19:36.086Z,6.30
2018-04-06T03:22:04.330Z,6.23
2018-04-06T03:24:31.804Z,5.57
2018-04-06T03:26:59.317Z,7.23
2018-04-06T03:29:26.795Z,5.90
2018-04-06T03:31:54.298Z,5.27
2018-04-06T03:34:21.772Z,6.60
2018-04-06T03:36:49.275Z,6.77
2018-04-06T03:39:16.770Z,6.97
2018-04-06T03:41:44.285Z,6.20
2018-04-06T03:44:11.770Z,6.27
2018-04-06T03:46:39.301Z,6.97
2018-04-06T03:49:06.784Z,6.20
2018-04-06T03:51:34.305Z,6.23
2018-04-06T03:54:01.834Z,5.83
2018-04-06T03:56:29.322Z,6.40
2018-04-06T03:58:56.837Z,7.07
2018-04-06T04:01:24.331Z,5.27
2018-04-06T04:03:51.819Z,5.50
2018-04-06T04:06:19.309Z,5.70
2018-04-06T04:08:46.813Z,6.00
2018-04-06T04:11:15.066Z,5.93
2018-04-06T04:13:42.602Z,5.17
2018-04-06T04:16:10.079Z,5.80
2018-04-06T04:18:37.590Z,5.60
2018-04-06T04:21:05.147Z,5.67
2018-04-06T04:23:32.595Z,6.03
2018-04-06T04:26:00.095Z,7.00
2018-04-06T04:28:27.570Z,5.27
2018-04-06T04:30:55.071Z,6.20
2018-04-06T04:33:22.558Z,6.67
2018-04-06T04:35:50.210Z,6.23
2018-04-06T04:38:18.493Z,6.27
2018-04-06T04:40:45.998Z,6.10
2018-04-06T04:43:13.473Z,6.07
2018-04-06T04:45:40.972Z,5.90
2018-04-06T04:48:08.475Z,6.00
2018-04-06T04:50:35.980Z,6.13
2018-04-06T04:53:03.464Z,6.73
2018-04-06T04:55:30.992Z,7.10
2018-04-06T04:57:59.259Z,7.33
2018-04-06T05:00:26.766Z,8.20
2018-04-06T05:02:54.255Z,8.30
2018-04-06T05:05:21.762Z,6.90
2018-04-06T05:07:49.245Z,7.10
2018-04-06T05:10:16.722Z,7.63
2018-04-06T05:12:44.280Z,6.83
2018-04-06T05:15:11.879Z,5.97
2018-04-06T05:17:40.211Z,7.67
2018-04-06T05:20:07.674Z,5.67
2018-04-06T05:22:35.179Z,7.07
2018-04-06T05:25:02.715Z,10.23
2018-04-06T05:27:30.225Z,7.80
2018-04-06T05:29:57.764Z,8.33
2018-04-06T05:32:25.324Z,7.40
2018-04-06T05:34:52.802Z,8.60
2018-04-06T05:37:20.299Z,8.97
2018-04-06T05:39:47.826Z,10.43
2018-04-06T05:42:15.303Z,8.77
2018-04-06T05:44:42.799Z,10.87
2018-04-06T05:47:10.294Z,10.10
2018-04-06T05:49:37.814Z,10.23
2018-04-06T05:52:05.338Z,10.40
2018-04-06T05:54:32.831Z,10.23
2018-04-06T05:57:01.103Z,10.27
2018-04-06T05:59:28.615Z,9.47
2018-04-06T06:01:56.137Z,9.40
2018-04-06T06:04:23.631Z,10.60
2018-04-06T06:06:51.142Z,9.67
2018-04-06T06:09:18.658Z,11.60
2018-04-06T06:11:46.234Z,11.90
2018-04-06T06:14:13.744Z,11.53
2018-04-06T06:16:41.255Z,12.13
2018-04-06T06:19:08.738Z,13.83
2018-04-06T06:21:36.242Z,12.63
2018-04-06T06:24:04.507Z,11.43
2018-04-06T06:26:32.015Z,12.87
2018-04-06T06:28:59.533Z,12.40
2018-04-06T06:31:27.041Z,11.97
2018-04-06T06:33:54.529Z,12.03
2018-04-06T06:36:22.073Z,12.77
2018-04-06T06:38:50.324Z,12.40
2018-04-06T06:41:17.891Z,12.17
2018-04-06T06:43:45.373Z,13.90
2018-04-06T06:46:12.863Z,12.00
2018-04-06T06:48:40.362Z,13.30
2018-04-06T06:51:07.858Z,12.67
2018-04-06T06:53:35.421Z,11.50
2018-04-06T06:56:02.927Z,12.80
2018-04-06T06:58:30.436Z,11.10
2018-04-06T07:00:58.715Z,10.97
2018-04-06T07:03:27.012Z,10.97
2018-04-06T07:05:54.584Z,10.33
2018-04-06T07:08:22.296Z,11.43
2018-04-06T07:10:50.518Z,11.03
2018-04-06T07:13:18.019Z,9.40
2018-04-06T07:15:46.261Z,10.20
2018-04-06T07:18:13.818Z,10.37
2018-04-06T07:20:41.303Z,10.50
2018-04-06T07:23:08.787Z,9.40
2018-04-06T07:25:36.290Z,9.13
2018-04-06T07:28:04.556Z,9.93
2018-04-06T07:30:32.063Z,8.60
2018-04-06T07:32:59.686Z,7.97
2018-04-06T07:35:27.276Z,8.60
2018-04-06T07:37:54.810Z,9.37
2018-04-06T07:40:22.724Z,9.93
2018-04-06T07:42:50.258Z,8.03
2018-04-06T07:45:17.808Z,8.97
2018-04-06T07:47:45.324Z,7.50
2018-04-06T07:50:12.893Z,7.30
2018-04-06T07:52:40.404Z,7.07
2018-04-06T07:55:08.674Z,7.40
2018-04-06T07:57:36.152Z,8.33
2018-04-06T08:02:52.693Z,7.47
2018-04-06T08:05:20.174Z,7.27
2018-04-06T08:07:47.684Z,8.17
2018-04-06T08:10:29.898Z,7.13
2018-04-06T08:12:57.412Z,7.07
2018-04-06T08:15:24.902Z,5.40
2018-04-06T08:17:52.474Z,6.10
2018-04-06T08:20:20.006Z,5.70
2018-04-06T08:22:47.503Z,6.53
2018-04-06T08:25:14.971Z,4.93
2018-04-06T08:27:42.490Z,5.30
2018-04-06T08:30:09.999Z,4.23
2018-04-06T08:32:37.474Z,4.87
2018-04-06T08:35:04.974Z,4.77
2018-04-06T08:37:32.474Z,5.07
2018-04-06T08:39:59.946Z,4.53
2018-04-06T08:42:28.239Z,4.20
2018-04-06T08:44:55.682Z,4.60
2018-04-06T08:47:23.961Z,4.00
2018-04-06T08:49:51.445Z,4.40
2018-04-06T08:52:19.705Z,4.90
2018-04-06T08:54:47.255Z,4.67
2018-04-06T08:57:14.750Z,4.67
2018-04-06T08:59:42.231Z,4.67
2018-04-06T09:02:09.728Z,3.90
2018-04-06T09:04:37.234Z,3.63
2018-04-06T09:07:04.725Z,3.57
2018-04-06T09:09:32.256Z,3.97
2018-04-06T09:11:59.739Z,3.60
2018-04-06T09:14:27.222Z,4.17
2018-04-06T09:16:54.724Z,4.00
2018-04-06T09:19:22.202Z,4.83
2018-04-06T09:21:49.720Z,5.23
2018-04-06T09:24:17.210Z,3.80
2018-04-06T09:26:44.710Z,4.20
2018-04-06T09:29:12.989Z,4.27
2018-04-06T09:31:40.470Z,4.67
2018-04-06T09:34:07.978Z,4.67
2018-04-06T09:36:35.505Z,4.20
2018-04-06T09:39:02.991Z,4.03
2018-04-06T09:41:30.470Z,3.43
2018-04-06T09:43:58.734Z,3.80
2018-04-06T09:46:27.001Z,2.90
2018-04-06T09:48:54.506Z,3.33
2018-04-06T09:51:21.987Z,2.87
2018-04-06T09:53:50.303Z,3.47
2018-04-06T09:56:18.526Z,3.10
2018-04-06T09:58:46.034Z,3.90
2018-04-06T10:01:13.517Z,2.70
2018-04-06T10:03:41.042Z,3.00
2018-04-06T10:06:08.525Z,2.50
2018-04-06T10:08:36.053Z,2.53
2018-04-06T10:11:03.531Z,2.30
2018-04-06T10:13:31.067Z,2.90
2018-04-06T10:15:58.574Z,2.10
2018-04-06T10:18:26.086Z,2.40
2018-04-06T10:20:54.379Z,1.83
2018-04-06T10:23:22.714Z,2.67
2018-04-06T10:25:50.192Z,2.10
2018-04-06T10:28:17.730Z,2.13
2018-04-06T10:30:45.216Z,2.80
2018-04-06T10:33:12.960Z,3.73
2018-04-06T10:35:40.486Z,2.97
2018-04-06T10:38:07.967Z,2.40
2018-04-06T10:40:35.474Z,2.90
2018-04-06T10:43:02.962Z,2.20
2018-04-06T10:45:30.484Z,2.40
2018-04-06T10:47:57.982Z,3.40
2018-04-06T10:50:25.463Z,2.10
2018-04-06T10:52:53.743Z,2.33
2018-04-06T10:55:21.257Z,2.50
2018-04-06T10:57:48.770Z,2.83
2018-04-06T11:00:16.256Z,2.07
2018-04-06T11:02:43.767Z,2.17
2018-04-06T11:05:11.277Z,2.10
2018-04-06T11:07:38.794Z,2.00
2018-04-06T11:10:06.302Z,1.77
2018-04-06T11:12:33.786Z,1.90
2018-04-06T11:15:01.263Z,2.03
2018-04-06T11:17:28.746Z,2.63
2018-04-06T11:19:56.248Z,3.23
2018-04-06T11:22:23.726Z,3.23
2018-04-06T11:24:51.222Z,2.37
2018-04-06T11:27:18.706Z,1.93
2018-04-06T11:29:46.214Z,2.10
2018-04-06T11:32:14.459Z,2.40
2018-04-06T11:34:41.934Z,1.90
2018-04-06T11:37:09.432Z,3.17
2018-04-06T11:39:36.914Z,2.43
2018-04-06T11:42:05.244Z,2.20
2018-04-06T11:44:33.450Z,2.10
2018-04-06T11:47:00.964Z,2.30
2018-04-06T11:49:29.223Z,2.63
2018-04-06T11:51:56.734Z,1.90
2018-04-06T11:54:24.974Z,2.47
2018-04-06T11:56:52.454Z,2.77
2018-04-06T11:59:19.982Z,1.90
2018-04-06T12:01:47.465Z,1.97
2018-04-06T12:04:14.970Z,2.80
2018-04-06T12:06:42.439Z,2.27
2018-04-06T12:09:09.953Z,2.53
2018-04-06T12:11:37.432Z,2.40
2018-04-06T12:14:04.959Z,1.97
2018-04-06T12:16:32.434Z,3.00
2018-04-06T12:18:59.907Z,1.63
2018-04-06T12:21:27.438Z,2.47
2018-04-06T12:23:54.921Z,2.20
2018-04-06T12:26:22.435Z,2.20
2018-04-06T12:28:50.674Z,2.00
2018-04-06T12:31:18.178Z,1.60
2018-04-06T12:33:46.428Z,2.80
2018-04-06T12:36:13.923Z,2.10
2018-04-06T12:38:41.398Z,2.40
2018-04-06T12:41:08.911Z,1.70
2018-04-06T12:43:36.388Z,2.20
2018-04-06T12:46:03.857Z,1.63
2018-04-06T12:48:31.358Z,1.87
2018-04-06T12:50:58.856Z,1.80
2018-04-06T12:53:26.377Z,1.97
2018-04-06T12:55:53.879Z,2.10
2018-04-06T12:58:21.350Z,2.27
2018-04-06T13:00:48.867Z,2.03
2018-04-06T13:03:16.350Z,2.77
2018-04-06T13:05:43.846Z,1.97
2018-04-06T13:08:11.330Z,2.23
2018-04-06T13:10:38.842Z,2.40
2018-04-06T13:13:07.096Z,2.10
2018-04-06T13:15:34.570Z,2.60
2018-04-06T13:18:02.074Z,1.57
2018-04-06T13:20:29.561Z,2.10
2018-04-06T13:22:57.059Z,1.77
2018-04-06T13:25:24.537Z,1.60
2018-04-06T13:27:52.063Z,2.70
2018-04-06T13:30:19.553Z,2.07
2018-04-06T13:32:47.054Z,2.10
2018-04-06T13:35:14.558Z,1.50
2018-04-06T13:37:42.830Z,2.47
2018-04-06T13:40:10.322Z,1.97
2018-04-06T13:42:37.806Z,2.10
2018-04-06T13:45:05.305Z,2.70
2018-04-06T13:47:32.794Z,2.00
2018-04-06T13:50:00.307Z,2.00
2018-04-06T13:52:27.791Z,1.83
2018-04-06T13:54:55.347Z,2.60
2018-04-06T13:57:22.823Z,2.00
2018-04-06T13:59:50.307Z,1.77
2018-04-06T14:02:17.809Z,1.93
2018-04-06T14:04:45.278Z,2.70
2018-04-06T14:07:12.775Z,2.60
2018-04-06T14:09:40.249Z,2.80
2018-04-06T14:12:07.758Z,1.87
2018-04-06T14:14:35.270Z,1.97
2018-04-06T14:17:02.789Z,2.20
2018-04-06T14:19:30.277Z,2.17
2018-04-06T14:21:57.788Z,2.70
2018-04-06T14:24:25.291Z,1.87
2018-04-06T14:26:52.766Z,2.03
2018-04-06T14:29:21.127Z,2.70
2018-04-06T14:31:48.604Z,2.43
2018-04-06T14:34:16.090Z,4.63
2018-04-06T14:36:44.370Z,2.03
2018-04-06T14:39:11.844Z,2.23
2018-04-06T14:41:40.233Z,2.57
2018-04-06T14:44:08.474Z,2.30
2018-04-06T14:46:35.950Z,2.30
2018-04-06T14:49:03.449Z,1.77
2018-04-06T14:51:30.962Z,2.47
2018-04-06T14:53:58.465Z,2.57
2018-04-06T14:56:25.970Z,2.43
2018-04-06T14:58:54.239Z,2.57
2018-04-06T15:01:22.468Z,2.43
2018-04-06T15:03:49.950Z,1.90
2018-04-06T15:06:17.490Z,3.63
2018-04-06T15:08:45.797Z,2.30
2018-04-06T15:11:13.392Z,2.00
2018-04-06T15:13:40.918Z,2.40
2018-04-06T15:16:08.450Z,2.37
2018-04-06T15:18:35.983Z,2.00
2018-04-06T15:21:03.474Z,3.00
2018-04-06T15:23:30.966Z,2.63
2018-04-06T15:25:58.536Z,3.30
2018-04-06T15:28:26.005Z,1.97
2018-04-06T15:30:53.516Z,2.07
2018-04-06T15:33:21.008Z,2.67
2018-04-06T15:35:48.566Z,2.60
2018-04-06T15:38:16.893Z,2.70
2018-04-06T15:40:44.380Z,2.70
2018-04-06T15:43:11.888Z,2.30
2018-04-06T15:45:40.260Z,3.97
2018-04-06T15:48:07.853Z,3.03
2018-04-06T15:50:35.358Z,2.30
2018-04-06T15:53:02.867Z,2.90
2018-04-06T15:55:30.454Z,1.97
2018-04-06T15:57:57.984Z,2.37
2018-04-06T16:00:25.498Z,1.90
2018-04-06T16:02:53.013Z,2.70
2018-04-06T16:05:20.576Z,2.20
2018-04-06T16:07:48.088Z,3.17
2018-04-06T16:10:15.596Z,3.07
2018-04-06T16:12:43.908Z,2.37
2018-04-06T16:15:12.190Z,2.10
2018-04-06T16:17:40.576Z,2.50
2018-04-06T16:20:08.927Z,3.87
2018-04-06T16:22:36.443Z,2.90
2018-04-06T16:25:04.724Z,2.67
2018-04-06T16:27:32.964Z,2.60
2018-04-06T16:30:00.482Z,3.27
2018-04-06T16:32:28.767Z,1.83
2018-04-06T16:34:56.313Z,2.23
2018-04-06T16:37:23.817Z,3.33
2018-04-06T16:39:52.109Z,2.60
2018-04-06T16:42:19.794Z,3.03
2018-04-06T16:44:48.069Z,2.27
2018-04-06T16:47:16.354Z,2.73
2018-04-06T16:49:44.640Z,2.83
2018-04-06T16:52:12.122Z,2.73
2018-04-06T16:54:40.389Z,3.20
2018-04-06T16:57:07.895Z,2.20
2018-04-06T16:59:35.404Z,2.80
2018-04-06T17:02:02.895Z,2.77
2018-04-06T17:04:30.453Z,3.77
2018-04-06T17:06:58.079Z,2.47
2018-04-06T17:09:25.655Z,2.87
2018-04-06T17:11:53.264Z,3.30
2018-04-06T17:14:20.807Z,3.00
2018-04-06T17:16:48.499Z,3.23
2018-04-06T17:19:16.047Z,3.40
2018-04-06T17:21:44.304Z,3.60
2018-04-06T17:24:11.850Z,3.20
2018-04-06T17:26:39.326Z,2.87
2018-04-06T17:29:06.800Z,3.03
2018-04-06T17:31:34.343Z,2.90
2018-04-06T17:34:01.820Z,2.90
2018-04-06T17:36:29.366Z,2.80
2018-04-06T17:38:56.868Z,3.03
2018-04-06T17:41:24.389Z,3.40
2018-04-06T17:43:51.898Z,2.80
2018-04-06T17:46:19.401Z,3.50
2018-04-06T17:48:46.918Z,3.50
2018-04-06T17:51:14.409Z,2.77
2018-04-06T17:53:41.930Z,3.10
2018-04-06T17:56:09.402Z,2.90
2018-04-06T17:58:36.903Z,3.50
2018-04-06T18:01:05.270Z,3.70
2018-04-06T18:03:33.565Z,2.97
2018-04-06T18:06:01.050Z,2.80
2018-04-06T18:08:29.299Z,3.87
2018-04-06T18:10:56.831Z,3.03
2018-04-06T18:13:24.337Z,3.67
2018-04-06T18:15:51.827Z,3.10
2018-04-06T18:18:19.303Z,3.47
2018-04-06T18:20:46.803Z,3.40
2018-04-06T18:23:14.274Z,3.30
2018-04-06T18:25:41.786Z,2.83
2018-04-06T18:28:09.307Z,3.40
2018-04-06T18:30:37.574Z,3.20
2018-04-06T18:33:05.825Z,3.53
2018-04-06T18:35:33.296Z,2.80
2018-04-06T18:38:00.810Z,3.13
2018-04-06T18:40:29.047Z,2.93
2018-04-06T18:42:56.561Z,3.03
2018-04-06T18:45:24.043Z,2.90
2018-04-06T18:47:52.355Z,3.37
2018-04-06T18:50:19.869Z,2.93
2018-04-06T18:52:47.344Z,3.10
2018-04-06T18:55:14.905Z,3.20
2018-04-06T18:57:42.392Z,2.93
2018-04-06T19:00:09.870Z,2.97
2018-04-06T19:02:37.381Z,2.73
2018-04-06T19:05:04.906Z,3.67
2018-04-06T19:07:32.388Z,3.03
2018-04-06T19:09:59.885Z,3.23
2018-04-06T19:12:27.394Z,2.83
2018-04-06T19:14:54.866Z,3.00
2018-04-06T19:17:22.366Z,4.13
2018-04-06T19:19:49.858Z,2.83
2018-04-06T19:22:17.358Z,3.83
2018-04-06T19:24:44.851Z,3.33
2018-04-06T19:27:12.366Z,2.93
2018-04-06T19:29:40.610Z,5.10
2018-04-06T19:32:08.107Z,3.70
2018-04-06T19:34:36.350Z,2.67
2018-04-06T19:37:03.850Z,3.17
2018-04-06T19:39:31.321Z,3.40
2018-04-06T19:41:58.818Z,2.90
2018-04-06T19:44:27.079Z,3.77
2018-04-06T19:46:54.571Z,2.70
2018-04-06T19:49:22.835Z,3.00
2018-04-06T19:51:50.320Z,2.93
2018-04-06T19:54:17.825Z,3.80
2018-04-06T19:56:45.300Z,4.20
2018-04-06T19:59:12.814Z,3.07
2018-04-06T20:01:40.298Z,3.07
2018-04-06T20:04:07.794Z,4.07
2018-04-06T20:06:36.048Z,3.00
2018-04-06T20:09:03.557Z,4.00
2018-04-06T20:11:31.818Z,3.23
2018-04-06T20:13:59.302Z,3.53
2018-04-06T20:16:27.570Z,3.40
2018-04-06T20:18:55.075Z,4.30
2018-04-06T20:21:23.323Z,3.63
2018-04-06T20:23:50.823Z,4.50
2018-04-06T20:26:19.062Z,4.63
2018-04-06T20:28:46.579Z,4.40
2018-04-06T20:31:14.835Z,4.53
2018-04-06T20:33:42.341Z,4.40
2018-04-06T20:36:10.614Z,4.37
2018-04-06T20:38:38.094Z,5.00
2018-04-06T20:41:05.618Z,5.43
2018-04-06T20:43:33.094Z,5.00
2018-04-06T20:46:00.588Z,4.13
2018-04-06T20:48:28.104Z,4.57
2018-04-06T20:50:55.597Z,5.53
2018-04-06T20:53:23.097Z,5.07
2018-04-06T20:55:50.590Z,5.03
2018-04-06T20:58:18.840Z,5.30
2018-04-06T21:00:46.341Z,7.20
2018-04-06T21:03:14.596Z,5.83
2018-04-06T21:05:42.107Z,5.13
2018-04-06T21:08:09.621Z,4.37
2018-04-06T21:10:37.097Z,4.70
2018-04-06T21:13:04.612Z,4.80
2018-04-06T21:15:32.087Z,4.80
2018-04-06T21:18:00.346Z,4.80
2018-04-06T21:20:27.854Z,4.50
2018-04-06T21:22:56.103Z,5.60
2018-04-06T21:25:23.620Z,6.80
2018-04-06T21:27:51.856Z,4.03
2018-04-06T21:30:19.380Z,4.37
2018-04-06T21:32:47.619Z,4.10
2018-04-06T21:35:15.086Z,4.73
2018-04-06T21:37:42.591Z,5.40
2018-04-06T21:40:10.066Z,5.30
2018-04-06T21:42:37.579Z,4.83
2018-04-06T21:45:05.080Z,4.57
2018-04-06T21:47:32.556Z,6.10
2018-04-06T21:50:00.074Z,4.87
2018-04-06T21:52:28.322Z,5.50
2018-04-06T21:54:55.849Z,5.17
2018-04-06T21:57:23.426Z,5.20
2018-04-06T21:59:50.906Z,4.23
2018-04-06T22:02:18.409Z,5.00
2018-04-06T22:04:45.885Z,4.90
2018-04-06T22:07:13.390Z,5.03
2018-04-06T22:09:40.855Z,4.50
2018-04-06T22:12:08.347Z,5.00
2018-04-06T22:14:35.851Z,4.93
2018-04-06T22:17:03.346Z,5.23
2018-04-06T22:19:30.837Z,5.67
2018-04-06T22:21:59.110Z,5.27
2018-04-06T22:24:27.351Z,4.70
2018-04-06T22:26:54.814Z,4.77
2018-04-06T22:29:22.314Z,4.37
2018-04-06T22:31:49.828Z,4.73
2018-04-06T22:34:17.309Z,4.50
2018-04-06T22:36:44.875Z,5.03
2018-04-06T22:39:12.345Z,5.40
2018-04-06T22:41:39.826Z,5.10
2018-04-06T22:44:07.331Z,4.60
2018-04-06T22:46:34.798Z,5.43
2018-04-06T22:49:02.393Z,4.80
2018-04-06T22:51:29.870Z,5.40
2018-04-06T22:53:57.354Z,6.27
2018-04-06T22:56:24.859Z,5.40
2018-04-06T22:58:52.337Z,5.80
2018-04-06T23:01:19.842Z,4.70
2018-04-06T23:03:47.326Z,5.50
2018-04-06T23:06:14.821Z,5.40
2018-04-06T23:08:42.326Z,5.13
2018-04-06T23:11:09.799Z,5.17
2018-04-06T23:13:37.265Z,5.60
2018-04-06T23:16:04.770Z,5.80
2018-04-06T23:18:32.238Z,5.07
2018-04-06T23:20:59.711Z,5.17
2018-04-06T23:23:27.210Z,5.33
2018-04-06T23:25:54.718Z,4.80
2018-04-06T23:28:22.195Z,4.63
2018-04-06T23:30:49.698Z,5.10
2018-04-06T23:33:17.193Z,5.40
2018-04-06T23:35:45.430Z,5.20
2018-04-06T23:38:12.926Z,5.20
2018-04-06T23:40:40.432Z,5.07
2018-04-06T23:43:07.898Z,4.70
2018-04-06T23:45:35.362Z,5.73
2018-04-06T23:48:02.857Z,4.43
2018-04-06T23:50:30.366Z,3.80
2018-04-06T23:52:57.830Z,4.90
2018-04-06T23:55:25.290Z,4.80
2018-04-06T23:57:52.770Z,4.70
